Time;durP1;ratioP1;P1;durP2;ratioP2;P2;SDS_P1;SDS_P2;PMS_P1;PMS_P2;Temp;Humidity;BMP_temperature;BMP_pressure;BME280_temperature;BME280_humidity;BME280_pressure;Samples;Min_cycle;Max_cycle;Signal;HPM_P1;HPM_P2
2022/12/04 00:01:05;;;;;;;;;;;;;;;;;;4993543;28;1980;-43
2022/12/04 00:03:32;;;;;;;;;;;;;;;;;;4993679;28;2083;-49
2022/12/04 00:06:10;;;;;;;;;;;;;;;;;;4993684;28;1965;-46
2022/12/04 00:08:37;;;;;;;;;;;;;;;;;;4993414;28;1999;-47
2022/12/04 00:11:05;;;;;;;;;;;;;;;;;;4992442;28;2123;-44
2022/12/04 00:13:33;;;;;;;;;;;;;;;;;;4993102;28;1873;-49
2022/12/04 00:16:02;;;;;;;;;;;;;;;;;;4993416;28;1910;-44
2022/12/04 00:18:29;;;;;;;;;;;;;;;;;;4993417;28;1950;-45
2022/12/04 00:20:56;;;;;;;;;;;;;;;;;;4980968;28;1967;-46
2022/12/04 00:23:23;;;;;;;;;;;;;;;;;;4973587;28;1930;-47
2022/12/04 00:25:52;;;;;;;;;;;;;;;;;;4973825;28;1900;-47
2022/12/04 00:28:19;;;;;;;;;;;;;;;;;;4973488;28;1834;-46
2022/12/04 00:30:46;;;;;;;;;;;;;;;;;;4973453;28;2093;-46
2022/12/04 00:33:13;;;;;;;;;;;;;;;;;;4973228;28;1846;-47
2022/12/04 00:35:40;;;;;;;;;;;;;;;;;;4973356;28;2174;-47
2022/12/04 00:38:07;;;;;;;;;;;;;;;;;;4972340;28;2080;-45
2022/12/04 00:40:34;;;;;;;;;;;;;;;;;;4973419;28;1774;-48
2022/12/04 00:43:01;;;;;;;;;;;;;;;;;;4973477;28;2187;-45
2022/12/04 00:45:28;;;;;;;;;;;;;;;;;;4973537;28;1911;-50
2022/12/04 00:47:55;;;;;;;;;;;;;;;;;;4973329;28;2097;-48
2022/12/04 00:50:22;;;;;;;;;;;;;;;;;;4973186;28;2050;-46
2022/12/04 00:52:51;;;;;;;;;;;;;;;;;;4973184;28;1811;-45
2022/12/04 00:55:18;;;;;;;;;;;;;;;;;;4972632;28;2064;-48
2022/12/04 00:57:45;;;;;;;;;;;;;;;;;;4973387;28;2014;-48
2022/12/04 01:00:12;;;;;;;;;;;;;;;;;;4972970;28;2035;-46
2022/12/04 01:02:40;;;;;;;;;;;;;;;;;;4971880;28;2087;-45
2022/12/04 01:05:07;;;;;;;;;;;;;;;;;;4972930;28;2016;-48
2022/12/04 01:07:34;;;;;;;;;;;;;;;;;;4971949;28;1944;-48
2022/12/04 01:10:01;;;;;;;;;;;;;;;;;;4972825;28;2203;-45
2022/12/04 01:12:29;;;;;;;;;;;;;;;;;;4973000;28;2011;-46
2022/12/04 01:14:56;;;;;;;;;;;;;;;;;;4972532;28;1963;-47
2022/12/04 01:17:24;;;;;;;;;;;;;;;;;;4972611;28;1738;-46
2022/12/04 01:19:51;;;;;;;;;;;;;;;;;;4976201;28;1989;-47
2022/12/04 01:22:19;;;;;;;;;;;;;;;;;;4991831;28;2030;-48
2022/12/04 01:24:46;;;;;;;;;;;;;;;;;;4991936;28;2050;-46
2022/12/04 01:27:13;;;;;;;;;;;;;;;;;;4992135;28;1875;-47
2022/12/04 01:29:40;;;;;;;;;;;;;;;;;;4991951;28;2017;-48
2022/12/04 01:32:07;;;;;;;;;;;;;;;;;;4992015;28;2135;-47
2022/12/04 01:34:35;;;;;;;;;;;;;;;;;;4991797;28;1999;-44
2022/12/04 01:37:02;;;;;;;;;;;;;;;;;;4991841;28;2084;-43
2022/12/04 01:39:29;;;;;;;;;;;;;;;;;;4992140;28;1954;-48
2022/12/04 01:41:56;;;;;;;;;;;;;;;;;;4992056;28;2244;-45
2022/12/04 01:44:24;;;;;;;;;;;;;;;;;;4991808;28;2106;-46
2022/12/04 01:46:59;;;;;;;;;;;;;;;;;;4991912;28;1869;-48
2022/12/04 01:49:52;;;;;;;;;;;;;;;;;;4991484;28;2093;-48
2022/12/04 01:52:24;;;;;;;;;;;;;;;;;;4990779;28;2017;-44
2022/12/04 01:54:54;;;;;;;;;;;;;;;;;;4991466;28;2096;-47
2022/12/04 01:57:24;;;;;;;;;;;;;;;;;;4991696;28;2004;-47
2022/12/04 01:59:59;;;;;;;;;;;;;;;;;;4991580;28;1958;-48
2022/12/04 02:02:33;;;;;;;;;;;;;;;;;;4991896;28;1976;-47
2022/12/04 02:05:02;;;;;;;;;;;;;;;;;;4990490;28;1989;-43
2022/12/04 02:07:30;;;;;;;;;;;;;;;;;;4991902;28;2011;-46
2022/12/04 02:10:02;;;;;;;;;;;;;;;;;;4991719;28;2161;-48
2022/12/04 02:12:43;;;;;;;;;;;;;;;;;;4991746;28;1892;-46
2022/12/04 02:15:16;;;;;;;;;;;;;;;;;;4991222;28;1908;-45
2022/12/04 02:17:51;;;;;;;;;;;;;;;;;;4991460;28;2077;-45
2022/12/04 02:20:26;;;;;;;;;;;;;;;;;;4991344;28;1920;-46
2022/12/04 02:22:54;;;;;;;;;;;;;;;;;;4991405;28;2144;-50
2022/12/04 02:25:40;;;;;;;;;;;;;;;;;;4991349;28;2083;-47
2022/12/04 02:28:28;;;;;;;;;;;;;;;;;;4991445;28;1756;-45
2022/12/04 02:30:57;;;;;;;;;;;;;;;;;;4991068;28;1949;-45
2022/12/04 02:33:54;;;;;;;;;;;;;;;;;;4991138;28;2062;-49
2022/12/04 02:36:23;;;;;;;;;;;;;;;;;;4994282;28;1979;-46
2022/12/04 02:38:49;;;;;;;;;;;;;;;;;;4995059;28;1960;-45
2022/12/04 02:41:22;;;;;;;;;;;;;;;;;;4994933;28;2071;-46
2022/12/04 02:43:52;;;;;;;;;;;;;;;;;;4994876;28;2156;-47
2022/12/04 02:46:28;;;;;;;;;;;;;;;;;;4994958;28;1522;-47
2022/12/04 02:49:01;;;;;;;;;;;;;;;;;;4994841;28;2039;-47
2022/12/04 02:51:31;;;;;;;;;;;;;;;;;;4995058;28;2008;-49
2022/12/04 02:54:02;;;;;;;;;;;;;;;;;;4994636;28;2102;-48
2022/12/04 02:56:33;;;;;;;;;;;;;;;;;;4995004;28;2118;-44
2022/12/04 02:59:03;;;;;;;;;;;;;;;;;;4994813;28;1927;-49
2022/12/04 03:01:33;;;;;;;;;;;;;;;;;;4993654;28;2289;-46
2022/12/04 03:04:00;;;;;;;;;;;;;;;;;;4994744;28;1998;-49
2022/12/04 03:06:29;;;;;;;;;;;;;;;;;;5009519;28;2164;-46
2022/12/04 03:09:02;;;;;;;;;;;;;;;;;;4994650;28;1806;-44
2022/12/04 03:11:31;;;;;;;;;;;;;;;;;;4994624;28;1923;-48
2022/12/04 03:14:09;;;;;;;;;;;;;;;;;;4994520;28;2072;-47
2022/12/04 03:16:39;;;;;;;;;;;;;;;;;;4994422;28;1943;-49
2022/12/04 03:19:08;;;;;;;;;;;;;;;;;;4994140;28;1962;-48
2022/12/04 03:21:39;;;;;;;;;;;;;;;;;;4994252;28;2035;-48
2022/12/04 03:24:09;;;;;;;;;;;;;;;;;;4994287;28;1801;-48
2022/12/04 03:26:41;;;;;;;;;;;;;;;;;;4994266;28;2095;-44
2022/12/04 03:29:14;;;;;;;;;;;;;;;;;;4994104;28;1856;-44
2022/12/04 03:31:44;;;;;;;;;;;;;;;;;;4993936;28;1994;-46
2022/12/04 03:34:14;;;;;;;;;;;;;;;;;;4993973;28;2107;-43
2022/12/04 03:36:46;;;;;;;;;;;;;;;;;;4994092;28;1981;-47
2022/12/04 03:39:25;;;;;;;;;;;;;;;;;;4993886;28;2073;-48
2022/12/04 03:41:55;;;;;;;;;;;;;;;;;;4993945;28;1802;-50
2022/12/04 03:44:26;;;;;;;;;;;;;;;;;;4993845;28;1920;-43
2022/12/04 03:46:53;;;;;;;;;;;;;;;;;;4992720;28;1733;-46
2022/12/04 03:49:43;;;;;;;;;;;;;;;;;;4993684;28;1857;-48
2022/12/04 03:52:17;;;;;;;;;;;;;;;;;;4990880;28;2141;-49
2022/12/04 03:55:04;;;;;;;;;;;;;;;;;;4993457;28;1943;-46
2022/12/04 03:57:37;;;;;;;;;;;;;;;;;;4993397;28;1932;-46
2022/12/04 04:00:11;;;;;;;;;;;;;;;;;;4993680;28;2130;-43
2022/12/04 04:02:44;;;;;;;;;;;;;;;;;;4993572;28;2210;-46
2022/12/04 04:05:11;;;;;;;;;;;;;;;;;;4993427;28;2038;-47
2022/12/04 04:07:47;;;;;;;;;;;;;;;;;;4974078;28;1992;-45
2022/12/04 04:10:16;;;;;;;;;;;;;;;;;;4973796;28;1966;-44
2022/12/04 04:24:12;;;;;;;;;;;;;;;;;;4974325;28;1993;-44
2022/12/04 04:24:15;;;;;;;;;;;;;;;;;;4993123;28;2106;-45
2022/12/04 04:26:44;;;;;;;;;;;;;;;;;;4992183;28;2004;-40
2022/12/04 04:29:11;;;;;;;;;;;;;;;;;;4992980;28;2025;-44
2022/12/04 04:31:45;;;;;;;;;;;;;;;;;;4992893;28;2024;-43
2022/12/04 04:34:19;;;;;;;;;;;;;;;;;;4992639;28;1909;-46
2022/12/04 04:37:05;;;;;;;;;;;;;;;;;;4992792;28;2208;-46
2022/12/04 04:39:44;;;;;;;;;;;;;;;;;;4993022;28;2006;-48
2022/12/04 04:42:11;;;;;;;;;;;;;;;;;;4992727;28;2058;-47
2022/12/04 04:44:38;;;;;;;;;;;;;;;;;;4992479;28;2028;-45
2022/12/04 04:47:07;;;;;;;;;;;;;;;;;;4992746;28;1877;-46
2022/12/04 04:49:36;;;;;;;;;;;;;;;;;;4992661;28;2081;-42
2022/12/04 04:52:03;;;;;;;;;;;;;;;;;;4992861;28;2390;-48
2022/12/04 04:54:31;;;;;;;;;;;;;;;;;;4992675;28;1770;-48
2022/12/04 04:56:58;;;;;;;;;;;;;;;;;;4992006;28;1907;-46
2022/12/04 04:59:25;;;;;;;;;;;;;;;;;;4992534;28;2073;-46
2022/12/04 05:01:52;;;;;;;;;;;;;;;;;;4992406;28;1940;-46
2022/12/04 05:04:19;;;;;;;;;;;;;;;;;;4992526;28;2190;-44
2022/12/04 05:06:47;;;;;;;;;;;;;;;;;;4992363;28;2045;-45
2022/12/04 05:09:14;;;;;;;;;;;;;;;;;;4992301;28;1988;-46
2022/12/04 05:11:41;;;;;;;;;;;;;;;;;;4992129;28;2231;-46
2022/12/04 05:14:08;;;;;;;;;;;;;;;;;;4992167;28;1859;-48
2022/12/04 05:16:35;;;;;;;;;;;;;;;;;;4991981;28;1912;-45
2022/12/04 05:21:48;;;;;;;;;;;;;;;;;;4992102;28;1804;-46
2022/12/04 05:24:15;;;;;;;;;;;;;;;;;;4991922;28;1920;-44
2022/12/04 05:26:42;;;;;;;;;;;;;;;;;;4992085;28;1975;-44
2022/12/04 05:29:09;;;;;;;;;;;;;;;;;;4992049;28;1935;-47
2022/12/04 05:31:37;;;;;;;;;;;;;;;;;;4991964;28;1980;-45
2022/12/04 05:34:04;;;;;;;;;;;;;;;;;;4991810;28;1995;-42
2022/12/04 05:36:31;;;;;;;;;;;;;;;;;;4991963;28;2061;-48
2022/12/04 05:38:58;;;;;;;;;;;;;;;;;;4991965;28;1933;-49
2022/12/04 05:41:25;;;;;;;;;;;;;;;;;;4991816;28;2066;-45
2022/12/04 05:43:52;;;;;;;;;;;;;;;;;;4992056;28;2085;-46
2022/12/04 05:46:19;;;;;;;;;;;;;;;;;;4991823;28;2019;-48
2022/12/04 05:48:46;;;;;;;;;;;;;;;;;;4991880;28;1773;-50
2022/12/04 05:51:13;;;;;;;;;;;;;;;;;;4991560;28;1832;-51
2022/12/04 05:53:41;;;;;;;;;;;;;;;;;;4991767;28;2050;-49
2022/12/04 05:56:09;;;;;;;;;;;;;;;;;;4991796;28;1971;-47
2022/12/04 05:58:37;;;;;;;;;;;;;;;;;;4977624;28;1998;-46
2022/12/04 06:01:12;;;;;;;;;;;;;;;;;;4972394;28;1996;-47
2022/12/04 06:03:39;;;;;;;;;;;;;;;;;;4972094;28;1844;-46
2022/12/04 06:06:16;;;;;;;;;;;;;;;;;;4972317;28;2256;-47
2022/12/04 06:08:48;;;;;;;;;;;;;;;;;;4972175;28;2093;-46
2022/12/04 06:11:16;;;;;;;;;;;;;;;;;;4975974;28;1927;-44
2022/12/04 06:13:44;;;;;;;;;;;;;;;;;;4976188;28;1781;-45
2022/12/04 06:16:18;;;;;;;;;;;;;;;;;;4975638;28;2069;-49
2022/12/04 06:18:53;;;;;;;;;;;;;;;;;;4976090;28;1941;-49
2022/12/04 06:21:21;;;;;;;;;;;;;;;;;;4991344;28;2159;-50
2022/12/04 06:23:50;;;;;;;;;;;;;;;;;;4995425;28;1858;-47
2022/12/04 06:26:19;;;;;;;;;;;;;;;;;;4995327;28;2035;-49
2022/12/04 06:28:46;;;;;;;;;;;;;;;;;;4981291;28;9799;-45
2022/12/04 06:31:14;;;;;;;;;;;;;;;;;;4975681;28;1789;-47
2022/12/04 06:33:42;;;;;;;;;;;;;;;;;;4975703;28;1907;-48
2022/12/04 06:36:13;;;;;;;;;;;;;;;;;;4975392;28;1921;-44
2022/12/04 06:38:40;;;;;;;;;;;;;;;;;;4975566;28;1927;-43
2022/12/04 06:41:09;;;;;;;;;;;;;;;;;;4975448;28;2120;-46
2022/12/04 06:43:37;;;;;;;;;;;;;;;;;;4975744;28;1737;-46
2022/12/04 06:46:05;;;;;;;;;;;;;;;;;;4975453;28;2179;-46
2022/12/04 06:48:33;;;;;;;;;;;;;;;;;;4975752;28;1967;-44
2022/12/04 06:51:01;;;;;;;;;;;;;;;;;;4975431;28;1977;-50
2022/12/04 06:53:29;;;;;;;;;;;;;;;;;;4972233;28;2136;-46
2022/12/04 06:55:57;;;;;;;;;;;;;;;;;;4956237;28;1968;-48
2022/12/04 06:58:25;;;;;;;;;;;;;;;;;;4956068;28;1974;-44
2022/12/04 07:00:53;;;;;;;;;;;;;;;;;;4956017;28;1944;-44
2022/12/04 07:03:21;;;;;;;;;;;;;;;;;;4955859;28;2051;-46
2022/12/04 07:05:48;;;;;;;;;;;;;;;;;;4956021;28;1799;-45
2022/12/04 07:08:15;;;;;;;;;;;;;;;;;;4955735;28;1984;-43
2022/12/04 07:10:42;;;;;;;;;;;;;;;;;;4955794;28;2069;-47
2022/12/04 07:13:09;;;;;;;;;;;;;;;;;;4955643;28;1941;-48
2022/12/04 07:15:36;;;;;;;;;;;;;;;;;;4955620;28;1808;-49
2022/12/04 07:18:04;;;;;;;;;;;;;;;;;;4955817;28;1969;-45
2022/12/04 07:20:31;;;;;;;;;;;;;;;;;;4964394;28;2040;-45
2022/12/04 07:22:58;;;;;;;;;;;;;;;;;;4974662;28;1878;-43
2022/12/04 07:25:31;;;;;;;;;;;;;;;;;;4974886;28;2104;-46
2022/12/04 07:27:58;;;;;;;;;;;;;;;;;;4974880;28;1973;-50
2022/12/04 07:30:25;;;;;;;;;;;;;;;;;;4974311;28;2037;-47
2022/12/04 07:32:52;;;;;;;;;;;;;;;;;;4974731;28;2064;-49
2022/12/04 07:35:19;;;;;;;;;;;;;;;;;;4974285;28;1891;-47
2022/12/04 07:37:46;;;;;;;;;;;;;;;;;;4974567;28;2014;-47
2022/12/04 07:40:13;;;;;;;;;;;;;;;;;;4974689;28;1989;-47
2022/12/04 07:42:40;;;;;;;;;;;;;;;;;;4965858;28;2022;-51
2022/12/04 07:45:08;;;;;;;;;;;;;;;;;;4955121;28;1836;-48
2022/12/04 07:47:35;;;;;;;;;;;;;;;;;;4955237;28;2001;-42
2022/12/04 07:50:03;;;;;;;;;;;;;;;;;;4955229;28;2015;-42
2022/12/04 07:52:30;;;;;;;;;;;;;;;;;;4955248;28;1821;-44
2022/12/04 07:54:57;;;;;;;;;;;;;;;;;;4955093;28;1956;-43
2022/12/04 07:57:24;;;;;;;;;;;;;;;;;;4954680;28;2118;-44
2022/12/04 07:59:51;;;;;;;;;;;;;;;;;;4954959;28;1857;-42
2022/12/04 08:02:19;;;;;;;;;;;;;;;;;;4954830;28;2032;-51
2022/12/04 08:04:46;;;;;;;;;;;;;;;;;;4954939;28;2111;-45
2022/12/04 08:07:13;;;;;;;;;;;;;;;;;;4954801;28;2132;-45
2022/12/04 08:09:40;;;;;;;;;;;;;;;;;;4954843;28;2177;-43
2022/12/04 08:12:07;;;;;;;;;;;;;;;;;;4954718;28;1943;-43
2022/12/04 08:14:35;;;;;;;;;;;;;;;;;;4954961;28;2500;-48
2022/12/04 08:17:02;;;;;;;;;;;;;;;;;;4954497;28;2027;-41
2022/12/04 08:19:29;;;;;;;;;;;;;;;;;;4955037;28;1741;-48
2022/12/04 08:21:56;;;;;;;;;;;;;;;;;;4973931;28;1871;-46
2022/12/04 08:24:23;;;;;;;;;;;;;;;;;;4973745;28;2134;-43
2022/12/04 08:26:50;;;;;;;;;;;;;;;;;;4973699;28;2157;-42
2022/12/04 08:29:17;;;;;;;;;;;;;;;;;;4973635;28;1868;-44
2022/12/04 08:31:44;;;;;;;;;;;;;;;;;;4973098;28;1800;-43
2022/12/04 08:34:12;;;;;;;;;;;;;;;;;;4972133;28;2015;-46
2022/12/04 08:36:39;;;;;;;;;;;;;;;;;;4973412;28;2092;-44
2022/12/04 08:39:07;;;;;;;;;;;;;;;;;;4973381;28;1957;-42
2022/12/04 08:41:34;;;;;;;;;;;;;;;;;;4973498;28;1972;-45
2022/12/04 08:44:01;;;;;;;;;;;;;;;;;;4973567;28;1860;-46
2022/12/04 08:46:28;;;;;;;;;;;;;;;;;;4973304;28;2035;-45
2022/12/04 08:48:55;;;;;;;;;;;;;;;;;;4973355;28;2179;-44
2022/12/04 08:51:24;;;;;;;;;;;;;;;;;;4973166;28;1813;-48
2022/12/04 08:53:57;;;;;;;;;;;;;;;;;;4973056;28;1968;-43
2022/12/04 08:56:25;;;;;;;;;;;;;;;;;;4973044;28;2267;-47
2022/12/04 08:58:53;;;;;;;;;;;;;;;;;;4960540;28;2185;-41
2022/12/04 09:01:21;;;;;;;;;;;;;;;;;;4953695;28;1973;-46
2022/12/04 09:03:51;;;;;;;;;;;;;;;;;;4953891;28;2229;-46
2022/12/04 09:06:19;;;;;;;;;;;;;;;;;;4953642;28;2017;-43
2022/12/04 09:08:46;;;;;;;;;;;;;;;;;;4972639;28;1853;-45
2022/12/04 09:11:15;;;;;;;;;;;;;;;;;;4972443;28;2158;-44
2022/12/04 09:13:43;;;;;;;;;;;;;;;;;;4973054;28;1931;-42
2022/12/04 09:16:11;;;;;;;;;;;;;;;;;;4972839;28;1775;-49
2022/12/04 09:18:39;;;;;;;;;;;;;;;;;;4972030;28;2103;-47
2022/12/04 09:21:08;;;;;;;;;;;;;;;;;;4972740;28;1912;-42
2022/12/04 09:23:38;;;;;;;;;;;;;;;;;;4972474;28;2220;-42
2022/12/04 09:26:06;;;;;;;;;;;;;;;;;;4972820;28;1904;-41
2022/12/04 09:28:33;;;;;;;;;;;;;;;;;;4972805;28;2145;-46
2022/12/04 09:31:04;;;;;;;;;;;;;;;;;;4972846;28;1969;-43
2022/12/04 09:33:31;;;;;;;;;;;;;;;;;;4972848;28;1888;-46
2022/12/04 09:35:59;;;;;;;;;;;;;;;;;;4972666;28;1976;-44
2022/12/04 09:38:26;;;;;;;;;;;;;;;;;;4972291;28;2067;-44
2022/12/04 09:41:12;;;;;;;;;;;;;;;;;;4972395;28;1900;-46
2022/12/04 09:43:48;;;;;;;;;;;;;;;;;;4972429;28;1956;-46
2022/12/04 09:46:27;;;;;;;;;;;;;;;;;;4972443;28;2019;-42
2022/12/04 09:48:56;;;;;;;;;;;;;;;;;;4972262;28;1839;-45
2022/12/04 09:51:25;;;;;;;;;;;;;;;;;;4972297;28;1873;-44
2022/12/04 09:54:06;;;;;;;;;;;;;;;;;;4972290;28;1767;-44
2022/12/04 09:56:33;;;;;;;;;;;;;;;;;;4972600;28;1892;-42
2022/12/04 09:59:20;;;;;;;;;;;;;;;;;;4972016;28;1972;-42
2022/12/04 10:01:55;;;;;;;;;;;;;;;;;;4972217;28;2083;-42
2022/12/04 10:04:22;;;;;;;;;;;;;;;;;;4971874;28;1998;-45
2022/12/04 10:07:12;;;;;;;;;;;;;;;;;;4972145;28;1932;-49
2022/12/04 10:09:45;;;;;;;;;;;;;;;;;;4970160;28;2026;-41
2022/12/04 10:12:25;;;;;;;;;;;;;;;;;;4971047;28;1964;-46
2022/12/04 10:15:02;;;;;;;;;;;;;;;;;;4971281;28;2080;-47
2022/12/04 10:17:29;;;;;;;;;;;;;;;;;;4970896;28;1977;-47
2022/12/04 10:19:58;;;;;;;;;;;;;;;;;;4971054;28;1903;-43
2022/12/04 10:22:25;;;;;;;;;;;;;;;;;;4971298;28;1835;-46
2022/12/04 10:24:58;;;;;;;;;;;;;;;;;;4986163;28;1883;-44
2022/12/04 10:27:29;;;;;;;;;;;;;;;;;;4971606;28;2077;-47
2022/12/04 10:30:17;;;;;;;;;;;;;;;;;;4971659;28;1814;-44
2022/12/04 10:32:45;;;;;;;;;;;;;;;;;;4971752;28;2177;-48
2022/12/04 10:35:18;;;;;;;;;;;;;;;;;;4971829;28;1916;-45
2022/12/04 10:37:46;;;;;;;;;;;;;;;;;;4971846;28;1972;-47
2022/12/04 10:40:19;;;;;;;;;;;;;;;;;;4970193;28;2117;-44
2022/12/04 10:42:52;;;;;;;;;;;;;;;;;;4971615;28;2072;-46
2022/12/04 10:45:21;;;;;;;;;;;;;;;;;;4971745;28;2043;-46
2022/12/04 10:47:50;;;;;;;;;;;;;;;;;;4972030;28;2007;-44
2022/12/04 10:50:19;;;;;;;;;;;;;;;;;;4971489;28;2113;-40
2022/12/04 10:52:46;;;;;;;;;;;;;;;;;;4970355;28;1828;-44
2022/12/04 10:55:14;;;;;;;;;;;;;;;;;;4972244;28;2013;-43
2022/12/04 10:57:45;;;;;;;;;;;;;;;;;;4975048;28;1984;-45
2022/12/04 11:00:38;;;;;;;;;;;;;;;;;;4975193;28;1876;-43
2022/12/04 11:03:21;;;;;;;;;;;;;;;;;;4973748;28;2051;-42
2022/12/04 11:05:56;;;;;;;;;;;;;;;;;;4975051;28;2232;-50
2022/12/04 11:08:29;;;;;;;;;;;;;;;;;;4975220;28;1932;-47
2022/12/04 11:11:10;;;;;;;;;;;;;;;;;;4975159;28;1997;-51
2022/12/04 11:13:37;;;;;;;;;;;;;;;;;;4975066;28;2134;-49
2022/12/04 11:16:07;;;;;;;;;;;;;;;;;;4973847;28;1931;-49
2022/12/04 11:18:46;;;;;;;;;;;;;;;;;;4973451;28;2453;-47
2022/12/04 11:21:20;;;;;;;;;;;;;;;;;;4974668;28;1949;-47
2022/12/04 11:23:49;;;;;;;;;;;;;;;;;;4974730;28;2063;-46
2022/12/04 11:26:17;;;;;;;;;;;;;;;;;;4974793;28;1972;-43
2022/12/04 11:28:48;;;;;;;;;;;;;;;;;;4974622;28;2169;-43
2022/12/04 11:31:16;;;;;;;;;;;;;;;;;;4974626;28;1887;-44
2022/12/04 11:33:45;;;;;;;;;;;;;;;;;;4974743;28;2016;-46
2022/12/04 11:36:18;;;;;;;;;;;;;;;;;;4974687;28;1751;-45
2022/12/04 11:38:45;;;;;;;;;;;;;;;;;;4974400;28;2011;-47
2022/12/04 11:41:26;;;;;;;;;;;;;;;;;;4974371;28;1988;-49
2022/12/04 11:43:54;;;;;;;;;;;;;;;;;;4974656;28;1995;-45
2022/12/04 11:46:28;;;;;;;;;;;;;;;;;;4974542;28;1833;-47
2022/12/04 11:48:57;;;;;;;;;;;;;;;;;;4974353;28;2046;-46
2022/12/04 11:51:25;;;;;;;;;;;;;;;;;;4974340;28;1837;-43
2022/12/04 11:53:58;;;;;;;;;;;;;;;;;;4974160;28;1970;-46
2022/12/04 11:56:28;;;;;;;;;;;;;;;;;;4974266;28;1916;-48
2022/12/04 11:58:58;;;;;;;;;;;;;;;;;;4973752;28;1991;-46
2022/12/04 12:01:37;;;;;;;;;;;;;;;;;;4973985;28;2030;-45
2022/12/04 12:04:04;;;;;;;;;;;;;;;;;;4974189;28;1937;-44
2022/12/04 12:06:57;;;;;;;;;;;;;;;;;;4973672;28;2077;-46
2022/12/04 12:09:45;;;;;;;;;;;;;;;;;;4972965;28;1952;-45
2022/12/04 12:12:21;;;;;;;;;;;;;;;;;;4973554;28;2047;-45
2022/12/04 12:14:51;;;;;;;;;;;;;;;;;;4973704;28;2210;-45
2022/12/04 12:17:24;;;;;;;;;;;;;;;;;;4973970;28;2084;-45
2022/12/04 12:19:54;;;;;;;;;;;;;;;;;;4973508;28;1973;-48
2022/12/04 12:22:40;;;;;;;;;;;;;;;;;;4973687;28;1915;-47
2022/12/04 12:25:15;;;;;;;;;;;;;;;;;;4973371;28;1271;-41
2022/12/04 12:27:49;;;;;;;;;;;;;;;;;;4973693;28;1984;-46
2022/12/04 12:30:18;;;;;;;;;;;;;;;;;;4973702;28;2025;-48
2022/12/04 12:33:08;;;;;;;;;;;;;;;;;;4973500;28;2053;-45
2022/12/04 12:35:44;;;;;;;;;;;;;;;;;;4973433;28;2002;-47
2022/12/04 12:38:17;;;;;;;;;;;;;;;;;;4972211;28;1967;-47
2022/12/04 12:41:04;;;;;;;;;;;;;;;;;;4973092;28;2014;-48
2022/12/04 12:43:36;;;;;;;;;;;;;;;;;;4973435;28;1740;-45
2022/12/04 12:46:11;;;;;;;;;;;;;;;;;;4973710;28;2244;-43
2022/12/04 12:48:57;;;;;;;;;;;;;;;;;;4973233;28;1902;-49
2022/12/04 12:51:40;;;;;;;;;;;;;;;;;;4973260;28;1930;-49
2022/12/04 12:54:16;;;;;;;;;;;;;;;;;;4972913;28;1944;-46
2022/12/04 12:56:46;;;;;;;;;;;;;;;;;;4973216;28;1867;-43
2022/12/04 12:59:20;;;;;;;;;;;;;;;;;;4987720;28;1971;-42
2022/12/04 13:01:47;;;;;;;;;;;;;;;;;;4972975;28;2096;-49
2022/12/04 13:04:28;;;;;;;;;;;;;;;;;;4967058;28;1793;-47
2022/12/04 13:07:15;;;;;;;;;;;;;;;;;;4953474;28;2295;-44
2022/12/04 13:10:04;;;;;;;;;;;;;;;;;;4952982;28;1795;-46
2022/12/04 13:12:39;;;;;;;;;;;;;;;;;;4953477;28;1746;-50
2022/12/04 13:15:12;;;;;;;;;;;;;;;;;;4953259;29;1989;-45
2022/12/04 13:17:39;;;;;;;;;;;;;;;;;;4953352;28;1818;-47
2022/12/04 13:20:11;;;;;;;;;;;;;;;;;;4958487;28;2005;-47
2022/12/04 13:22:38;;;;;;;;;;;;;;;;;;4972437;28;2079;-41
2022/12/04 13:25:11;;;;;;;;;;;;;;;;;;4972760;28;2217;-47
2022/12/04 13:27:38;;;;;;;;;;;;;;;;;;4972480;28;2032;-43
2022/12/04 13:30:08;;;;;;;;;;;;;;;;;;4972987;28;1959;-45
2022/12/04 13:32:54;;;;;;;;;;;;;;;;;;4972996;28;2157;-50
2022/12/04 13:35:33;;;;;;;;;;;;;;;;;;4972207;28;2059;-42
2022/12/04 13:38:10;;;;;;;;;;;;;;;;;;4972393;28;1898;-42
2022/12/04 13:40:39;;;;;;;;;;;;;;;;;;4972391;28;2046;-41
2022/12/04 13:43:12;;;;;;;;;;;;;;;;;;4972387;28;2141;-43
2022/12/04 13:45:39;;;;;;;;;;;;;;;;;;4972445;28;2092;-46
2022/12/04 13:48:08;;;;;;;;;;;;;;;;;;4972401;28;2070;-42
2022/12/04 13:50:37;;;;;;;;;;;;;;;;;;4972606;28;1955;-44
2022/12/04 13:53:04;;;;;;;;;;;;;;;;;;4972364;28;2054;-50
2022/12/04 13:55:31;;;;;;;;;;;;;;;;;;4972239;28;1873;-44
2022/12/04 13:57:58;;;;;;;;;;;;;;;;;;4972249;28;1988;-40
2022/12/04 14:00:25;;;;;;;;;;;;;;;;;;4964080;28;2012;-45
2022/12/04 14:02:54;;;;;;;;;;;;;;;;;;4952714;28;1619;-43
2022/12/04 14:05:26;;;;;;;;;;;;;;;;;;4952848;28;1962;-48
2022/12/04 14:08:04;;;;;;;;;;;;;;;;;;4953374;28;1797;-45
2022/12/04 14:10:35;;;;;;;;;;;;;;;;;;4952917;28;1885;-49
2022/12/04 14:13:12;;;;;;;;;;;;;;;;;;4953079;28;2049;-46
2022/12/04 14:15:40;;;;;;;;;;;;;;;;;;4952807;28;1954;-47
2022/12/04 14:18:10;;;;;;;;;;;;;;;;;;4952582;28;2102;-42
2022/12/04 14:20:37;;;;;;;;;;;;;;;;;;4973204;28;2041;-44
2022/12/04 14:23:18;;;;;;;;;;;;;;;;;;4957194;28;1826;-45
2022/12/04 14:25:45;;;;;;;;;;;;;;;;;;4951862;28;2019;-46
2022/12/04 14:28:31;;;;;;;;;;;;;;;;;;4952602;28;2006;-45
2022/12/04 14:31:07;;;;;;;;;;;;;;;;;;4954530;28;2076;-49
2022/12/04 14:33:38;;;;;;;;;;;;;;;;;;4956516;28;1981;-44
2022/12/04 14:36:14;;;;;;;;;;;;;;;;;;4956305;28;2101;-46
2022/12/04 14:38:43;;;;;;;;;;;;;;;;;;4956394;28;1912;-47
2022/12/04 14:41:10;;;;;;;;;;;;;;;;;;4956052;28;2064;-46
2022/12/04 14:43:39;;;;;;;;;;;;;;;;;;4973000;28;2020;-46
2022/12/04 14:46:12;;;;;;;;;;;;;;;;;;4975483;28;1855;-42
2022/12/04 14:48:39;;;;;;;;;;;;;;;;;;4974090;28;2154;-46
2022/12/04 14:51:12;;;;;;;;;;;;;;;;;;4975658;28;1816;-44
2022/12/04 14:53:43;;;;;;;;;;;;;;;;;;4975496;28;1918;-44
2022/12/04 14:56:35;;;;;;;;;;;;;;;;;;4974937;28;1982;-49
2022/12/04 14:59:13;;;;;;;;;;;;;;;;;;4975252;28;1903;-43
2022/12/04 15:01:41;;;;;;;;;;;;;;;;;;4975070;28;1977;-44
2022/12/04 15:04:31;;;;;;;;;;;;;;;;;;4975275;28;2090;-44
2022/12/04 15:06:59;;;;;;;;;;;;;;;;;;4974610;28;2125;-48
2022/12/04 15:12:35;;;;;;;;;;;;;;;;;;4974912;28;2226;-45
2022/12/04 15:15:03;;;;;;;;;;;;;;;;;;4975183;28;1986;-50
2022/12/04 15:17:30;;;;;;;;;;;;;;;;;;4974871;28;1863;-47
2022/12/04 15:20:06;;;;;;;;;;;;;;;;;;4974398;28;1910;-46
2022/12/04 15:22:33;;;;;;;;;;;;;;;;;;4957692;28;2391;-46
2022/12/04 15:25:00;;;;;;;;;;;;;;;;;;4973543;28;2091;-46
2022/12/04 15:27:28;;;;;;;;;;;;;;;;;;4974748;28;1972;-46
2022/12/04 15:30:00;;;;;;;;;;;;;;;;;;4974719;28;1773;-44
2022/12/04 15:32:27;;;;;;;;;;;;;;;;;;4974618;28;2220;-47
2022/12/04 15:34:59;;;;;;;;;;;;;;;;;;4974580;28;2136;-48
2022/12/04 15:37:30;;;;;;;;;;;;;;;;;;4974592;28;1295;-45
2022/12/04 15:39:59;;;;;;;;;;;;;;;;;;4974457;28;2202;-45
2022/12/04 15:42:31;;;;;;;;;;;;;;;;;;4974317;28;2027;-51
2022/12/04 15:45:24;;;;;;;;;;;;;;;;;;4974613;28;2004;-44
2022/12/04 15:47:52;;;;;;;;;;;;;;;;;;4974211;28;1851;-46
2022/12/04 15:50:21;;;;;;;;;;;;;;;;;;4974349;28;2034;-46
2022/12/04 15:53:05;;;;;;;;;;;;;;;;;;4966380;28;2024;-47
2022/12/04 15:55:37;;;;;;;;;;;;;;;;;;4954795;28;1972;-42
2022/12/04 15:58:06;;;;;;;;;;;;;;;;;;4955160;28;1978;-45
2022/12/04 16:00:38;;;;;;;;;;;;;;;;;;4955193;28;2228;-42
2022/12/04 16:03:34;;;;;;;;;;;;;;;;;;4954864;28;1790;-44
2022/12/04 16:06:37;;;;;;;;;;;;;;;;;;4956112;28;1818;-47
2022/12/04 16:09:36;;;;;;;;;;;;;;;;;;4955480;28;2015;-44
2022/12/04 16:12:32;;;;;;;;;;;;;;;;;;4954628;28;2098;-44
2022/12/04 16:15:17;;;;;;;;;;;;;;;;;;4954932;28;1995;-54
2022/12/04 16:18:15;;;;;;;;;;;;;;;;;;4954599;28;2002;-42
2022/12/04 16:21:01;;;;;;;;;;;;;;;;;;4971215;28;6381;-45
2022/12/04 16:23:54;;;;;;;;;;;;;;;;;;4973013;28;1836;-46
2022/12/04 16:26:50;;;;;;;;;;;;;;;;;;4973593;28;1890;-45
2022/12/04 16:29:48;;;;;;;;;;;;;;;;;;4972690;28;1819;-47
2022/12/04 16:32:47;;;;;;;;;;;;;;;;;;4973240;28;2199;-46
2022/12/04 16:35:52;;;;;;;;;;;;;;;;;;4972490;28;1901;-47
2022/12/04 16:38:47;;;;;;;;;;;;;;;;;;4972487;28;1916;-43
2022/12/04 16:41:43;;;;;;;;;;;;;;;;;;4972480;28;1813;-44
2022/12/04 16:44:40;;;;;;;;;;;;;;;;;;4973496;28;1991;-42
2022/12/04 16:47:55;;;;;;;;;;;;;;;;;;4973357;28;2714;-42
2022/12/04 16:50:46;;;;;;;;;;;;;;;;;;4973373;28;2013;-46
2022/12/04 16:53:58;;;;;;;;;;;;;;;;;;4972596;28;1987;-45
2022/12/04 16:56:43;;;;;;;;;;;;;;;;;;4973098;28;2022;-48
2022/12/04 16:59:37;;;;;;;;;;;;;;;;;;4973389;28;2107;-48
2022/12/04 17:02:31;;;;;;;;;;;;;;;;;;4973047;28;1517;-44
2022/12/04 17:05:34;;;;;;;;;;;;;;;;;;4973097;28;1991;-42
2022/12/04 17:08:15;;;;;;;;;;;;;;;;;;4973062;28;1966;-43
2022/12/04 17:11:22;;;;;;;;;;;;;;;;;;4972725;28;1957;-45
2022/12/04 17:14:08;;;;;;;;;;;;;;;;;;4972804;28;2074;-45
2022/12/04 17:16:37;;;;;;;;;;;;;;;;;;4973078;28;2007;-47
2022/12/04 17:19:04;;;;;;;;;;;;;;;;;;4972928;28;1919;-44
2022/12/04 17:21:43;;;;;;;;;;;;;;;;;;4972672;28;1871;-46
2022/12/04 17:24:37;;;;;;;;;;;;;;;;;;4971567;28;1972;-47
2022/12/04 17:27:22;;;;;;;;;;;;;;;;;;4972450;28;2167;-44
2022/12/04 17:30:49;;;;;;;;;;;;;;;;;;4972962;28;2005;-41
2022/12/04 17:34:17;;;;;;;;;;;;;;;;;;4972887;28;2138;-42
2022/12/04 17:37:50;;;;;;;;;;;;;;;;;;4972835;28;2118;-42
2022/12/04 17:41:25;;;;;;;;;;;;;;;;;;4972657;28;1907;-44
2022/12/04 17:44:53;;;;;;;;;;;;;;;;;;4972658;28;1958;-44
2022/12/04 17:48:20;;;;;;;;;;;;;;;;;;4972723;28;1886;-46
2022/12/04 17:51:47;;;;;;;;;;;;;;;;;;4972599;28;1866;-44
2022/12/04 17:55:14;;;;;;;;;;;;;;;;;;4971892;28;1471;-47
2022/12/04 17:58:41;;;;;;;;;;;;;;;;;;4972620;28;1934;-47
2022/12/04 18:02:09;;;;;;;;;;;;;;;;;;4972490;28;1821;-42
2022/12/04 18:05:35;;;;;;;;;;;;;;;;;;4973961;28;1889;-44